sensor_id;sensor_type;location;lat;lon;timestamp;pressure;altitude;pressure_sealevel;temperature;humidity
16461;BME280;8341;42.048;24.650;2023-11-19T00:00:48;97026.91;;;6.77;60.93
16461;BME280;8341;42.048;24.650;2023-11-19T00:03:14;97039.41;;;6.75;61.15
16461;BME280;8341;42.048;24.650;2023-11-19T00:05:41;97040.75;;;6.61;62.00
16461;BME280;8341;42.048;24.650;2023-11-19T00:08:08;97051.56;;;6.52;61.97
16461;BME280;8341;42.048;24.650;2023-11-19T00:10:35;97045.56;;;6.57;61.99
16461;BME280;8341;42.048;24.650;2023-11-19T00:13:02;97061.34;;;6.59;61.71
16461;BME280;8341;42.048;24.650;2023-11-19T00:15:31;97062.13;;;6.59;61.95
16461;BME280;8341;42.048;24.650;2023-11-19T00:17:57;97055.47;;;6.60;62.21
16461;BME280;8341;42.048;24.650;2023-11-19T00:20:24;97060.91;;;6.60;61.66
16461;BME280;8341;42.048;24.650;2023-11-19T00:22:51;97052.78;;;6.69;61.73
16461;BME280;8341;42.048;24.650;2023-11-19T00:25:19;97071.72;;;6.60;62.04
16461;BME280;8341;42.048;24.650;2023-11-19T00:27:47;97069.03;;;6.60;62.20
16461;BME280;8341;42.048;24.650;2023-11-19T00:30:14;97058.78;;;6.55;62.61
16461;BME280;8341;42.048;24.650;2023-11-19T00:32:43;97055.19;;;6.58;62.41
16461;BME280;8341;42.048;24.650;2023-11-19T00:35:10;97056.84;;;6.56;62.48
16461;BME280;8341;42.048;24.650;2023-11-19T00:37:39;97062.72;;;6.54;62.72
16461;BME280;8341;42.048;24.650;2023-11-19T00:40:08;97071.13;;;6.56;61.94
16461;BME280;8341;42.048;24.650;2023-11-19T00:42:36;97081.69;;;6.54;62.47
16461;BME280;8341;42.048;24.650;2023-11-19T00:45:03;97083.66;;;6.72;62.13
16461;BME280;8341;42.048;24.650;2023-11-19T00:47:33;97083.34;;;6.61;62.87
16461;BME280;8341;42.048;24.650;2023-11-19T00:50:02;97084.84;;;6.62;62.71
16461;BME280;8341;42.048;24.650;2023-11-19T00:52:29;97083.19;;;6.64;62.69
16461;BME280;8341;42.048;24.650;2023-11-19T00:54:55;97081.69;;;6.63;62.86
16461;BME280;8341;42.048;24.650;2023-11-19T00:57:22;97066.63;;;6.71;62.82
16461;BME280;8341;42.048;24.650;2023-11-19T00:59:49;97079.59;;;6.76;62.22
16461;BME280;8341;42.048;24.650;2023-11-19T01:02:16;97090.13;;;6.74;62.77
16461;BME280;8341;42.048;24.650;2023-11-19T01:04:43;97071.50;;;6.85;62.21
16461;BME280;8341;42.048;24.650;2023-11-19T01:07:12;97083.53;;;6.84;61.99
16461;BME280;8341;42.048;24.650;2023-11-19T01:09:41;97071.59;;;6.73;62.74
16461;BME280;8341;42.048;24.650;2023-11-19T01:12:07;97082.91;;;6.71;61.98
16461;BME280;8341;42.048;24.650;2023-11-19T01:14:36;97070.72;;;6.67;62.44
16461;BME280;8341;42.048;24.650;2023-11-19T01:17:03;97076.13;;;6.67;62.21
16461;BME280;8341;42.048;24.650;2023-11-19T01:19:31;97071.94;;;6.75;62.26
16461;BME280;8341;42.048;24.650;2023-11-19T01:21:58;97083.66;;;6.72;62.67
16461;BME280;8341;42.048;24.650;2023-11-19T01:24:26;97088.19;;;6.75;62.69
16461;BME280;8341;42.048;24.650;2023-11-19T01:26:54;97078.84;;;6.67;62.79
16461;BME280;8341;42.048;24.650;2023-11-19T01:29:20;97073.25;;;6.61;63.17
16461;BME280;8341;42.048;24.650;2023-11-19T01:31:47;97087.72;;;6.67;62.77
16461;BME280;8341;42.048;24.650;2023-11-19T01:34:16;97083.19;;;6.73;62.29
16461;BME280;8341;42.048;24.650;2023-11-19T01:36:43;97076.28;;;6.72;63.05
16461;BME280;8341;42.048;24.650;2023-11-19T01:39:11;97075.81;;;6.74;62.79
16461;BME280;8341;42.048;24.650;2023-11-19T01:41:42;97075.97;;;6.70;62.61
16461;BME280;8341;42.048;24.650;2023-11-19T01:44:09;97073.84;;;6.65;63.00
16461;BME280;8341;42.048;24.650;2023-11-19T01:46:38;97077.47;;;6.71;62.88
16461;BME280;8341;42.048;24.650;2023-11-19T01:49:05;97089.22;;;6.68;62.93
16461;BME280;8341;42.048;24.650;2023-11-19T01:51:34;97070.84;;;6.63;63.21
16461;BME280;8341;42.048;24.650;2023-11-19T01:54:01;97083.78;;;6.68;63.17
16461;BME280;8341;42.048;24.650;2023-11-19T01:56:29;97087.41;;;6.65;63.20
16461;BME280;8341;42.048;24.650;2023-11-19T01:58:58;97092.81;;;6.65;63.56
16461;BME280;8341;42.048;24.650;2023-11-19T02:01:25;97088.44;;;6.68;63.35
16461;BME280;8341;42.048;24.650;2023-11-19T02:03:52;97076.41;;;6.69;63.03
16461;BME280;8341;42.048;24.650;2023-11-19T02:06:19;97074.31;;;6.64;63.50
16461;BME280;8341;42.048;24.650;2023-11-19T02:08:46;97061.34;;;6.68;63.41
16461;BME280;8341;42.048;24.650;2023-11-19T02:11:13;97069.66;;;6.64;63.94
16461;BME280;8341;42.048;24.650;2023-11-19T02:13:40;97073.56;;;6.63;64.15
16461;BME280;8341;42.048;24.650;2023-11-19T02:16:10;97081.50;;;6.58;63.49
16461;BME280;8341;42.048;24.650;2023-11-19T02:18:37;97088.16;;;6.57;64.38
16461;BME280;8341;42.048;24.650;2023-11-19T02:21:04;97096.72;;;6.55;64.03
16461;BME280;8341;42.048;24.650;2023-11-19T02:23:32;97095.34;;;6.51;64.65
16461;BME280;8341;42.048;24.650;2023-11-19T02:26:03;97097.88;;;6.45;64.78
16461;BME280;8341;42.048;24.650;2023-11-19T02:28:34;97107.25;;;6.53;64.66
16461;BME280;8341;42.048;24.650;2023-11-19T02:31:02;97112.31;;;6.42;64.79
16461;BME280;8341;42.048;24.650;2023-11-19T02:33:30;97104.06;;;6.37;65.36
16461;BME280;8341;42.048;24.650;2023-11-19T02:35:57;97107.84;;;6.48;64.83
16461;BME280;8341;42.048;24.650;2023-11-19T02:38:23;97118.97;;;6.50;64.33
16461;BME280;8341;42.048;24.650;2023-11-19T02:40:51;97119.56;;;6.45;64.89
16461;BME280;8341;42.048;24.650;2023-11-19T02:43:18;97115.06;;;6.51;64.09
16461;BME280;8341;42.048;24.650;2023-11-19T02:45:46;97109.53;;;6.55;64.42
16461;BME280;8341;42.048;24.650;2023-11-19T02:48:12;97112.53;;;6.57;63.91
16461;BME280;8341;42.048;24.650;2023-11-19T02:50:41;97122.91;;;6.49;64.66
16461;BME280;8341;42.048;24.650;2023-11-19T02:53:08;97124.72;;;6.52;64.24
16461;BME280;8341;42.048;24.650;2023-11-19T02:55:34;97140.69;;;6.59;63.90
16461;BME280;8341;42.048;24.650;2023-11-19T02:58:04;97123.19;;;6.51;64.65
16461;BME280;8341;42.048;24.650;2023-11-19T03:00:39;97126.97;;;6.54;64.48
16461;BME280;8341;42.048;24.650;2023-11-19T03:03:15;97133.41;;;6.47;63.90
16461;BME280;8341;42.048;24.650;2023-11-19T03:05:46;97117.16;;;6.47;64.11
16461;BME280;8341;42.048;24.650;2023-11-19T03:08:14;97129.22;;;6.46;64.19
16461;BME280;8341;42.048;24.650;2023-11-19T03:10:40;97119.31;;;6.52;63.95
16461;BME280;8341;42.048;24.650;2023-11-19T03:13:11;97119.72;;;6.51;63.35
16461;BME280;8341;42.048;24.650;2023-11-19T03:15:39;97110.78;;;6.32;64.34
16461;BME280;8341;42.048;24.650;2023-11-19T03:18:06;97117.44;;;6.40;64.16
16461;BME280;8341;42.048;24.650;2023-11-19T03:20:34;97121.97;;;6.43;64.11
16461;BME280;8341;42.048;24.650;2023-11-19T03:23:01;97134.91;;;6.48;63.74
16461;BME280;8341;42.048;24.650;2023-11-19T03:25:28;97148.47;;;6.48;63.63
16461;BME280;8341;42.048;24.650;2023-11-19T03:27:59;97158.41;;;6.51;64.15
16461;BME280;8341;42.048;24.650;2023-11-19T03:30:26;97147.53;;;6.42;64.07
16461;BME280;8341;42.048;24.650;2023-11-19T03:32:53;97136.44;;;6.49;63.84
16461;BME280;8341;42.048;24.650;2023-11-19T03:35:20;97120.44;;;6.42;64.37
16461;BME280;8341;42.048;24.650;2023-11-19T03:37:48;97128.91;;;6.44;63.25
16461;BME280;8341;42.048;24.650;2023-11-19T03:40:15;97113.84;;;6.43;64.19
16461;BME280;8341;42.048;24.650;2023-11-19T03:42:42;97115.03;;;6.42;63.70
16461;BME280;8341;42.048;24.650;2023-11-19T03:45:09;97108.72;;;6.45;63.80
16461;BME280;8341;42.048;24.650;2023-11-19T03:47:36;97109.00;;;6.38;64.57
16461;BME280;8341;42.048;24.650;2023-11-19T03:50:05;97102.66;;;6.32;64.82
16461;BME280;8341;42.048;24.650;2023-11-19T03:52:32;97102.06;;;6.37;64.83
16461;BME280;8341;42.048;24.650;2023-11-19T03:55:01;97107.34;;;6.32;65.08
16461;BME280;8341;42.048;24.650;2023-11-19T03:57:28;97110.78;;;6.32;65.07
16461;BME280;8341;42.048;24.650;2023-11-19T03:59:55;97102.38;;;6.30;64.47
16461;BME280;8341;42.048;24.650;2023-11-19T04:02:23;97115.94;;;6.39;64.71
16461;BME280;8341;42.048;24.650;2023-11-19T04:04:53;97107.78;;;6.30;64.56
16461;BME280;8341;42.048;24.650;2023-11-19T04:07:20;97105.13;;;6.39;64.68
16461;BME280;8341;42.048;24.650;2023-11-19T04:09:47;97118.63;;;6.30;64.62
16461;BME280;8341;42.048;24.650;2023-11-19T04:12:15;97112.59;;;6.26;64.88
16461;BME280;8341;42.048;24.650;2023-11-19T04:14:42;97114.41;;;6.29;64.79
16461;BME280;8341;42.048;24.650;2023-11-19T04:17:09;97122.38;;;6.32;64.30
16461;BME280;8341;42.048;24.650;2023-11-19T04:19:36;97121.16;;;6.24;64.18
16461;BME280;8341;42.048;24.650;2023-11-19T04:22:03;97129.41;;;6.21;65.08
16461;BME280;8341;42.048;24.650;2023-11-19T04:24:30;97127.16;;;6.19;64.78
16461;BME280;8341;42.048;24.650;2023-11-19T04:26:57;97128.47;;;6.15;64.69
16461;BME280;8341;42.048;24.650;2023-11-19T04:29:25;97133.13;;;6.14;64.68
16461;BME280;8341;42.048;24.650;2023-11-19T04:31:51;97130.13;;;6.12;64.25
16461;BME280;8341;42.048;24.650;2023-11-19T04:34:18;97148.63;;;6.14;64.72
16461;BME280;8341;42.048;24.650;2023-11-19T04:36:45;97147.72;;;6.17;64.44
16461;BME280;8341;42.048;24.650;2023-11-19T04:39:12;97156.63;;;6.17;64.20
16461;BME280;8341;42.048;24.650;2023-11-19T04:41:50;97150.59;;;6.13;64.47
16461;BME280;8341;42.048;24.650;2023-11-19T04:44:17;97155.25;;;6.13;64.62
16461;BME280;8341;42.048;24.650;2023-11-19T04:46:46;97162.50;;;6.16;64.31
16461;BME280;8341;42.048;24.650;2023-11-19T04:49:13;97154.31;;;6.07;64.85
16461;BME280;8341;42.048;24.650;2023-11-19T04:51:40;97162.72;;;6.09;64.57
16461;BME280;8341;42.048;24.650;2023-11-19T04:54:08;97162.44;;;6.07;65.11
16461;BME280;8341;42.048;24.650;2023-11-19T04:56:35;97160.00;;;6.00;65.35
16461;BME280;8341;42.048;24.650;2023-11-19T04:59:02;97152.75;;;5.97;64.93
16461;BME280;8341;42.048;24.650;2023-11-19T05:01:29;97149.09;;;5.91;65.43
16461;BME280;8341;42.048;24.650;2023-11-19T05:03:57;97150.31;;;5.90;64.95
16461;BME280;8341;42.048;24.650;2023-11-19T05:06:26;97154.97;;;5.89;64.84
16461;BME280;8341;42.048;24.650;2023-11-19T05:08:53;97158.13;;;5.88;65.29
16461;BME280;8341;42.048;24.650;2023-11-19T05:11:20;97164.41;;;5.85;65.45
16461;BME280;8341;42.048;24.650;2023-11-19T05:13:47;97151.66;;;5.85;65.79
16461;BME280;8341;42.048;24.650;2023-11-19T05:16:14;97165.91;;;5.86;65.16
16461;BME280;8341;42.048;24.650;2023-11-19T05:18:41;97163.44;;;5.79;65.65
16461;BME280;8341;42.048;24.650;2023-11-19T05:21:09;97143.88;;;5.75;64.92
16461;BME280;8341;42.048;24.650;2023-11-19T05:23:36;97140.16;;;5.81;64.97
16461;BME280;8341;42.048;24.650;2023-11-19T05:26:03;97148.09;;;5.76;65.56
16461;BME280;8341;42.048;24.650;2023-11-19T05:28:29;97148.09;;;5.76;65.27
16461;BME280;8341;42.048;24.650;2023-11-19T05:30:56;97166.28;;;5.75;65.38
16461;BME280;8341;42.048;24.650;2023-11-19T05:33:23;97175.34;;;5.81;64.89
16461;BME280;8341;42.048;24.650;2023-11-19T05:35:50;97176.22;;;5.78;65.18
16461;BME280;8341;42.048;24.650;2023-11-19T05:38:18;97178.91;;;5.78;65.16
16461;BME280;8341;42.048;24.650;2023-11-19T05:40:46;97185.66;;;5.74;65.75
16461;BME280;8341;42.048;24.650;2023-11-19T05:43:14;97184.03;;;5.76;65.65
16461;BME280;8341;42.048;24.650;2023-11-19T05:45:42;97191.94;;;5.70;65.87
16461;BME280;8341;42.048;24.650;2023-11-19T05:48:09;97202.09;;;5.79;64.77
16461;BME280;8341;42.048;24.650;2023-11-19T05:50:36;97213.75;;;5.89;64.41
16461;BME280;8341;42.048;24.650;2023-11-19T05:53:02;97196.56;;;5.83;65.30
16461;BME280;8341;42.048;24.650;2023-11-19T05:55:33;97197.44;;;5.80;64.92
16461;BME280;8341;42.048;24.650;2023-11-19T05:58:00;97187.69;;;5.82;64.80
16461;BME280;8341;42.048;24.650;2023-11-19T06:00:28;97186.91;;;5.82;65.04
16461;BME280;8341;42.048;24.650;2023-11-19T06:02:56;97184.53;;;5.84;64.93
16461;BME280;8341;42.048;24.650;2023-11-19T06:05:22;97190.47;;;5.91;64.26
16461;BME280;8341;42.048;24.650;2023-11-19T06:07:49;97186.00;;;5.97;64.58
16461;BME280;8341;42.048;24.650;2023-11-19T06:10:16;97191.59;;;6.03;63.48
16461;BME280;8341;42.048;24.650;2023-11-19T06:12:46;97192.16;;;5.98;63.98
16461;BME280;8341;42.048;24.650;2023-11-19T06:15:13;97191.97;;;5.92;64.02
16461;BME280;8341;42.048;24.650;2023-11-19T06:17:39;97177.56;;;5.95;63.64
16461;BME280;8341;42.048;24.650;2023-11-19T06:20:07;97193.47;;;5.93;63.65
16461;BME280;8341;42.048;24.650;2023-11-19T06:22:34;97200.53;;;5.91;63.95
16461;BME280;8341;42.048;24.650;2023-11-19T06:25:01;97213.81;;;5.98;63.07
16461;BME280;8341;42.048;24.650;2023-11-19T06:27:32;97226.72;;;5.94;63.35
16461;BME280;8341;42.048;24.650;2023-11-19T06:30:00;97205.19;;;5.90;63.21
16461;BME280;8341;42.048;24.650;2023-11-19T06:32:27;97223.19;;;6.06;62.96
16461;BME280;8341;42.048;24.650;2023-11-19T06:34:55;97204.25;;;6.06;62.62
16461;BME280;8341;42.048;24.650;2023-11-19T06:37:22;97213.94;;;6.16;62.81
16461;BME280;8341;42.048;24.650;2023-11-19T06:39:49;97234.38;;;6.17;62.55
16461;BME280;8341;42.048;24.650;2023-11-19T06:42:15;97222.66;;;6.20;61.91
16461;BME280;8341;42.048;24.650;2023-11-19T06:44:42;97242.09;;;6.27;62.03
16461;BME280;8341;42.048;24.650;2023-11-19T06:47:10;97240.03;;;6.32;61.43
16461;BME280;8341;42.048;24.650;2023-11-19T06:49:37;97257.66;;;6.36;61.16
16461;BME280;8341;42.048;24.650;2023-11-19T06:52:04;97246.44;;;6.47;61.70
16461;BME280;8341;42.048;24.650;2023-11-19T06:54:31;97245.69;;;6.46;61.32
16461;BME280;8341;42.048;24.650;2023-11-19T06:56:58;97238.97;;;6.60;60.90
16461;BME280;8341;42.048;24.650;2023-11-19T06:59:25;97244.88;;;6.67;60.68
16461;BME280;8341;42.048;24.650;2023-11-19T07:01:52;97235.88;;;6.79;59.61
16461;BME280;8341;42.048;24.650;2023-11-19T07:04:20;97242.94;;;6.77;59.63
16461;BME280;8341;42.048;24.650;2023-11-19T07:06:46;97247.59;;;6.67;60.03
16461;BME280;8341;42.048;24.650;2023-11-19T07:09:14;97247.25;;;6.65;60.05
16461;BME280;8341;42.048;24.650;2023-11-19T07:11:42;97248.13;;;6.53;60.33
16461;BME280;8341;42.048;24.650;2023-11-19T07:14:09;97236.03;;;6.45;60.46
16461;BME280;8341;42.048;24.650;2023-11-19T07:16:37;97236.28;;;6.29;60.90
16461;BME280;8341;42.048;24.650;2023-11-19T07:19:04;97244.25;;;6.32;60.58
16461;BME280;8341;42.048;24.650;2023-11-19T07:21:33;97258.34;;;6.27;61.29
16461;BME280;8341;42.048;24.650;2023-11-19T07:24:01;97262.78;;;6.34;61.46
16461;BME280;8341;42.048;24.650;2023-11-19T07:26:28;97258.25;;;6.31;61.23
16461;BME280;8341;42.048;24.650;2023-11-19T07:28:55;97252.75;;;6.22;61.26
16461;BME280;8341;42.048;24.650;2023-11-19T07:31:22;97246.16;;;6.23;61.35
16461;BME280;8341;42.048;24.650;2023-11-19T07:33:49;97265.00;;;6.26;61.21
16461;BME280;8341;42.048;24.650;2023-11-19T07:36:16;97256.31;;;6.41;61.71
16461;BME280;8341;42.048;24.650;2023-11-19T07:38:45;97247.72;;;6.64;60.67
16461;BME280;8341;42.048;24.650;2023-11-19T07:41:12;97261.78;;;6.80;60.11
16461;BME280;8341;42.048;24.650;2023-11-19T07:43:39;97283.38;;;6.93;60.06
16461;BME280;8341;42.048;24.650;2023-11-19T07:46:10;97284.56;;;6.92;59.37
16461;BME280;8341;42.048;24.650;2023-11-19T07:48:38;97278.44;;;7.01;59.40
16461;BME280;8341;42.048;24.650;2023-11-19T07:51:05;97277.25;;;7.11;59.21
16461;BME280;8341;42.048;24.650;2023-11-19T07:53:32;97273.38;;;7.21;58.84
16461;BME280;8341;42.048;24.650;2023-11-19T07:56:00;97287.53;;;7.25;58.65
16461;BME280;8341;42.048;24.650;2023-11-19T07:58:27;97298.75;;;7.54;57.66
16461;BME280;8341;42.048;24.650;2023-11-19T08:00:54;97303.56;;;7.59;57.12
16461;BME280;8341;42.048;24.650;2023-11-19T08:03:20;97285.81;;;7.67;56.42
16461;BME280;8341;42.048;24.650;2023-11-19T08:05:48;97274.34;;;7.72;56.99
16461;BME280;8341;42.048;24.650;2023-11-19T08:08:15;97291.81;;;7.62;56.97
16461;BME280;8341;42.048;24.650;2023-11-19T08:10:42;97292.56;;;7.53;56.68
16461;BME280;8341;42.048;24.650;2023-11-19T08:13:11;97302.47;;;7.38;57.49
16461;BME280;8341;42.048;24.650;2023-11-19T08:15:38;97280.00;;;7.29;57.51
16461;BME280;8341;42.048;24.650;2023-11-19T08:18:05;97285.63;;;7.52;56.39
16461;BME280;8341;42.048;24.650;2023-11-19T08:20:32;97301.75;;;7.56;56.19
16461;BME280;8341;42.048;24.650;2023-11-19T08:22:59;97307.19;;;7.56;57.27
16461;BME280;8341;42.048;24.650;2023-11-19T08:25:26;97299.50;;;7.54;57.50
16461;BME280;8341;42.048;24.650;2023-11-19T08:27:53;97304.31;;;7.50;56.82
16461;BME280;8341;42.048;24.650;2023-11-19T08:30:21;97294.94;;;7.33;56.68
16461;BME280;8341;42.048;24.650;2023-11-19T08:32:48;97319.47;;;7.30;57.26
16461;BME280;8341;42.048;24.650;2023-11-19T08:35:15;97316.38;;;7.01;57.79
16461;BME280;8341;42.048;24.650;2023-11-19T08:37:42;97304.03;;;7.00;57.63
16461;BME280;8341;42.048;24.650;2023-11-19T08:40:11;97312.19;;;7.09;58.83
16461;BME280;8341;42.048;24.650;2023-11-19T08:42:39;97303.72;;;6.98;58.22
16461;BME280;8341;42.048;24.650;2023-11-19T08:45:07;97295.94;;;7.09;58.96
16461;BME280;8341;42.048;24.650;2023-11-19T08:47:37;97300.97;;;7.28;57.08
16461;BME280;8341;42.048;24.650;2023-11-19T08:50:04;97304.91;;;7.45;56.69
16461;BME280;8341;42.048;24.650;2023-11-19T08:52:31;97315.19;;;7.69;56.65
16461;BME280;8341;42.048;24.650;2023-11-19T08:54:58;97308.44;;;7.82;54.57
16461;BME280;8341;42.048;24.650;2023-11-19T08:57:25;97309.78;;;7.87;55.64
16461;BME280;8341;42.048;24.650;2023-11-19T08:59:51;97310.56;;;8.05;55.80
16461;BME280;8341;42.048;24.650;2023-11-19T09:02:18;97315.38;;;8.10;54.72
16461;BME280;8341;42.048;24.650;2023-11-19T09:04:46;97305.72;;;8.09;55.22
16461;BME280;8341;42.048;24.650;2023-11-19T09:07:13;97300.59;;;8.20;55.03
16461;BME280;8341;42.048;24.650;2023-11-19T09:09:40;97303.44;;;8.35;54.28
16461;BME280;8341;42.048;24.650;2023-11-19T09:12:06;97293.38;;;8.27;53.92
16461;BME280;8341;42.048;24.650;2023-11-19T09:14:33;97315.84;;;8.36;53.01
16461;BME280;8341;42.048;24.650;2023-11-19T09:17:00;97301.78;;;8.47;53.21
16461;BME280;8341;42.048;24.650;2023-11-19T09:19:27;97301.59;;;8.50;53.23
16461;BME280;8341;42.048;24.650;2023-11-19T09:21:55;97308.09;;;8.62;51.79
16461;BME280;8341;42.048;24.650;2023-11-19T09:24:22;97289.81;;;8.62;52.89
16461;BME280;8341;42.048;24.650;2023-11-19T09:26:49;97286.06;;;8.60;51.73
16461;BME280;8341;42.048;24.650;2023-11-19T09:29:15;97282.19;;;8.34;52.67
16461;BME280;8341;42.048;24.650;2023-11-19T09:31:42;97283.63;;;8.53;53.23
16461;BME280;8341;42.048;24.650;2023-11-19T09:34:09;97291.50;;;8.60;53.33
16461;BME280;8341;42.048;24.650;2023-11-19T09:36:36;97287.59;;;8.52;52.49
16461;BME280;8341;42.048;24.650;2023-11-19T09:39:04;97281.97;;;8.55;52.75
16461;BME280;8341;42.048;24.650;2023-11-19T09:41:33;97292.69;;;8.59;52.36
16461;BME280;8341;42.048;24.650;2023-11-19T09:44:00;97288.38;;;8.85;52.05
16461;BME280;8341;42.048;24.650;2023-11-19T09:46:27;97286.38;;;8.95;51.91
16461;BME280;8341;42.048;24.650;2023-11-19T09:48:56;97292.06;;;8.73;51.60
16461;BME280;8341;42.048;24.650;2023-11-19T09:51:25;97277.72;;;8.72;52.44
16461;BME280;8341;42.048;24.650;2023-11-19T09:53:51;97279.31;;;8.88;52.46
16461;BME280;8341;42.048;24.650;2023-11-19T09:56:20;97284.53;;;9.01;51.38
16461;BME280;8341;42.048;24.650;2023-11-19T09:58:47;97296.34;;;8.89;51.94
16461;BME280;8341;42.048;24.650;2023-11-19T10:01:14;97281.69;;;8.95;50.97
16461;BME280;8341;42.048;24.650;2023-11-19T10:03:41;97299.00;;;9.07;51.32
16461;BME280;8341;42.048;24.650;2023-11-19T10:06:09;97307.94;;;9.07;51.24
16461;BME280;8341;42.048;24.650;2023-11-19T10:08:37;97304.63;;;9.03;50.45
16461;BME280;8341;42.048;24.650;2023-11-19T10:11:05;97319.84;;;9.10;50.72
16461;BME280;8341;42.048;24.650;2023-11-19T10:13:35;97299.97;;;9.04;50.06
16461;BME280;8341;42.048;24.650;2023-11-19T10:16:06;97298.16;;;8.92;50.72
16461;BME280;8341;42.048;24.650;2023-11-19T10:18:33;97303.16;;;8.93;50.44
16461;BME280;8341;42.048;24.650;2023-11-19T10:21:04;97308.56;;;9.02;50.82
16461;BME280;8341;42.048;24.650;2023-11-19T10:23:31;97302.78;;;9.09;50.67
16461;BME280;8341;42.048;24.650;2023-11-19T10:26:02;97293.06;;;9.17;50.54
16461;BME280;8341;42.048;24.650;2023-11-19T10:28:39;97295.56;;;9.30;50.16
16461;BME280;8341;42.048;24.650;2023-11-19T10:31:08;97292.75;;;9.24;50.64
16461;BME280;8341;42.048;24.650;2023-11-19T10:33:34;97285.09;;;9.14;50.74
16461;BME280;8341;42.048;24.650;2023-11-19T10:36:01;97277.00;;;9.28;51.22
16461;BME280;8341;42.048;24.650;2023-11-19T10:38:28;97276.00;;;9.40;50.56
16461;BME280;8341;42.048;24.650;2023-11-19T10:40:56;97260.22;;;9.54;50.89
16461;BME280;8341;42.048;24.650;2023-11-19T10:43:23;97263.38;;;9.76;50.47
16461;BME280;8341;42.048;24.650;2023-11-19T10:45:52;97277.56;;;9.80;49.31
16461;BME280;8341;42.048;24.650;2023-11-19T10:48:18;97286.03;;;9.82;49.66
16461;BME280;8341;42.048;24.650;2023-11-19T10:50:50;97265.47;;;9.81;49.33
16461;BME280;8341;42.048;24.650;2023-11-19T10:53:21;97259.81;;;9.84;49.30
16461;BME280;8341;42.048;24.650;2023-11-19T10:55:51;97281.91;;;9.86;48.81
16461;BME280;8341;42.048;24.650;2023-11-19T10:58:21;97268.47;;;9.83;48.92
16461;BME280;8341;42.048;24.650;2023-11-19T11:00:54;97258.22;;;9.78;48.88
16461;BME280;8341;42.048;24.650;2023-11-19T11:03:22;97251.69;;;9.61;49.12
16461;BME280;8341;42.048;24.650;2023-11-19T11:05:51;97241.44;;;9.56;49.42
16461;BME280;8341;42.048;24.650;2023-11-19T11:08:19;97258.13;;;9.72;49.09
16461;BME280;8341;42.048;24.650;2023-11-19T11:10:52;97262.16;;;9.77;49.24
16461;BME280;8341;42.048;24.650;2023-11-19T11:13:22;97255.63;;;9.83;48.98
16461;BME280;8341;42.048;24.650;2023-11-19T11:15:49;97262.56;;;9.99;49.58
16461;BME280;8341;42.048;24.650;2023-11-19T11:18:18;97264.03;;;10.09;49.34
16461;BME280;8341;42.048;24.650;2023-11-19T11:20:45;97262.50;;;10.08;48.00
16461;BME280;8341;42.048;24.650;2023-11-19T11:26:25;97248.25;;;10.13;49.92
16461;BME280;8341;42.048;24.650;2023-11-19T11:28:59;97234.34;;;10.11;48.72
16461;BME280;8341;42.048;24.650;2023-11-19T11:31:36;97218.84;;;10.17;47.92
16461;BME280;8341;42.048;24.650;2023-11-19T11:34:51;97220.72;;;10.11;48.00
16461;BME280;8341;42.048;24.650;2023-11-19T11:37:25;97221.88;;;10.19;48.83
16461;BME280;8341;42.048;24.650;2023-11-19T11:39:57;97213.13;;;10.15;47.86
16461;BME280;8341;42.048;24.650;2023-11-19T11:42:34;97208.44;;;10.16;48.62
16461;BME280;8341;42.048;24.650;2023-11-19T11:45:03;97193.66;;;10.22;47.81
16461;BME280;8341;42.048;24.650;2023-11-19T11:48:10;97196.69;;;10.24;47.88
16461;BME280;8341;42.048;24.650;2023-11-19T11:50:53;97199.88;;;10.37;47.65
16461;BME280;8341;42.048;24.650;2023-11-19T11:53:24;97190.94;;;10.22;48.13
16461;BME280;8341;42.048;24.650;2023-11-19T11:55:56;97180.72;;;10.32;49.13
16461;BME280;8341;42.048;24.650;2023-11-19T11:58:32;97183.88;;;10.30;48.62
16461;BME280;8341;42.048;24.650;2023-11-19T12:01:01;97173.53;;;10.05;48.22
16461;BME280;8341;42.048;24.650;2023-11-19T12:03:29;97169.78;;;10.02;48.22
16461;BME280;8341;42.048;24.650;2023-11-19T12:05:57;97167.53;;;10.01;47.96
16461;BME280;8341;42.048;24.650;2023-11-19T12:08:26;97168.19;;;9.96;48.01
16461;BME280;8341;42.048;24.650;2023-11-19T12:10:54;97162.75;;;9.96;49.33
16461;BME280;8341;42.048;24.650;2023-11-19T12:13:24;97161.41;;;9.91;48.62
16461;BME280;8341;42.048;24.650;2023-11-19T12:16:10;97168.47;;;9.98;49.25
16461;BME280;8341;42.048;24.650;2023-11-19T12:18:39;97181.59;;;9.85;49.42
16461;BME280;8341;42.048;24.650;2023-11-19T12:21:11;97167.13;;;9.79;49.21
16461;BME280;8341;42.048;24.650;2023-11-19T12:23:45;97168.47;;;9.98;49.63
16461;BME280;8341;42.048;24.650;2023-11-19T12:26:36;97158.88;;;9.88;48.85
16461;BME280;8341;42.048;24.650;2023-11-19T12:29:03;97162.06;;;9.86;48.86
16461;BME280;8341;42.048;24.650;2023-11-19T12:31:33;97163.38;;;9.76;49.39
16461;BME280;8341;42.048;24.650;2023-11-19T12:34:10;97153.63;;;9.84;49.41
16461;BME280;8341;42.048;24.650;2023-11-19T12:36:40;97144.22;;;9.85;49.23
16461;BME280;8341;42.048;24.650;2023-11-19T12:39:10;97146.09;;;9.79;49.51
16461;BME280;8341;42.048;24.650;2023-11-19T12:41:52;97149.47;;;9.89;49.60
16461;BME280;8341;42.048;24.650;2023-11-19T12:44:19;97150.16;;;9.98;49.81
16461;BME280;8341;42.048;24.650;2023-11-19T12:46:46;97142.00;;;10.13;50.16
16461;BME280;8341;42.048;24.650;2023-11-19T12:49:13;97137.41;;;10.19;49.68
16461;BME280;8341;42.048;24.650;2023-11-19T12:51:41;97144.91;;;10.24;49.86
16461;BME280;8341;42.048;24.650;2023-11-19T12:54:08;97147.44;;;10.28;48.46
16461;BME280;8341;42.048;24.650;2023-11-19T12:56:35;97141.13;;;10.36;49.13
16461;BME280;8341;42.048;24.650;2023-11-19T12:59:12;97131.34;;;10.44;49.23
16461;BME280;8341;42.048;24.650;2023-11-19T13:01:39;97135.94;;;10.38;49.42
16461;BME280;8341;42.048;24.650;2023-11-19T13:04:16;97153.16;;;10.15;48.93
16461;BME280;8341;42.048;24.650;2023-11-19T13:06:46;97146.88;;;10.09;49.25
16461;BME280;8341;42.048;24.650;2023-11-19T13:09:22;97137.47;;;10.10;49.08
16461;BME280;8341;42.048;24.650;2023-11-19T13:11:48;97134.72;;;10.10;49.72
16461;BME280;8341;42.048;24.650;2023-11-19T13:14:15;97129.50;;;10.06;48.97
16461;BME280;8341;42.048;24.650;2023-11-19T13:16:42;97126.00;;;10.06;49.68
16461;BME280;8341;42.048;24.650;2023-11-19T13:19:10;97117.91;;;9.97;49.63